Time;durP1;ratioP1;P1;durP2;ratioP2;P2;SDS_P1;SDS_P2;PMS_P1;PMS_P2;Temp;Humidity;BMP_temperature;BMP_pressure;BME280_temperature;BME280_humidity;BME280_pressure;Samples;Min_cycle;Max_cycle;Signal;HPM_P1;HPM_P2
2023/08/03 00:01:08;;;;;;;16.10;3.00;;;;;;;16.65;100.00;98948.19;6094013;19;20284;-71
2023/08/03 00:03:13;;;;;;;9.38;2.90;;;;;;;16.61;100.00;98939.69;6096249;19;20029;-70
2023/08/03 00:05:19;;;;;;;6.10;1.90;;;;;;;16.60;100.00;98951.25;6095339;19;20003;-71
2023/08/03 00:07:24;;;;;;;6.72;1.65;;;;;;;16.57;100.00;98948.91;6100217;19;20445;-72
2023/08/03 00:09:32;;;;;;;7.60;2.42;;;;;;;16.55;100.00;98961.47;6095430;19;20011;-71
2023/08/03 00:11:37;;;;;;;3.42;2.20;;;;;;;16.55;100.00;98963.28;6096278;19;20019;-72
2023/08/03 00:13:45;;;;;;;7.80;2.60;;;;;;;16.56;100.00;98964.94;6100954;19;20030;-73
2023/08/03 00:15:50;;;;;;;7.53;2.53;;;;;;;16.57;100.00;98964.81;6098325;19;20523;-72
2023/08/03 00:17:55;;;;;;;5.55;2.30;;;;;;;16.52;100.00;98964.41;6100486;19;20634;-73
2023/08/03 00:20:04;;;;;;;6.85;2.47;;;;;;;16.54;100.00;98969.59;6099819;19;20447;-72
2023/08/03 00:22:09;;;;;;;7.50;2.78;;;;;;;16.59;100.00;98965.50;6099256;19;20082;-74
2023/08/03 00:24:14;;;;;;;6.55;2.50;;;;;;;16.61;100.00;98975.97;6100874;19;20010;-74
2023/08/03 00:26:21;;;;;;;7.63;3.42;;;;;;;16.60;100.00;98980.44;6096297;19;20014;-72
2023/08/03 00:28:26;;;;;;;6.70;2.45;;;;;;;16.61;100.00;98987.44;6094613;19;20117;-73
2023/08/03 00:30:31;;;;;;;5.30;2.47;;;;;;;16.64;100.00;98994.22;6095539;19;20003;-72
2023/08/03 00:32:36;;;;;;;5.97;2.58;;;;;;;16.65;100.00;98999.38;6094721;19;20010;-74
2023/08/03 00:34:40;;;;;;;5.45;2.70;;;;;;;16.67;100.00;99005.41;6097321;19;20023;-74
2023/08/03 00:36:43;;;;;;;7.88;2.92;;;;;;;16.67;100.00;98997.44;6097511;19;20013;-72
2023/08/03 00:38:47;;;;;;;7.55;3.20;;;;;;;16.63;100.00;99001.34;6095134;19;20030;-71
2023/08/03 00:40:53;;;;;;;9.40;3.42;;;;;;;16.66;100.00;99002.88;6098667;19;19999;-72
2023/08/03 00:43:04;;;;;;;7.30;3.17;;;;;;;16.65;100.00;99010.00;6099572;19;19998;-73
2023/08/03 00:45:13;;;;;;;10.35;3.55;;;;;;;16.58;100.00;99006.25;6094437;19;20061;-72
2023/08/03 00:47:18;;;;;;;8.48;3.42;;;;;;;16.58;100.00;99008.91;6093835;19;20131;-72
2023/08/03 00:49:27;;;;;;;9.05;3.55;;;;;;;16.56;100.00;99008.25;6098334;19;25521;-72
2023/08/03 00:51:32;;;;;;;7.93;3.47;;;;;;;16.57;100.00;99014.38;6099465;19;20011;-72
2023/08/03 00:53:37;;;;;;;7.72;3.03;;;;;;;16.55;100.00;99013.66;6094703;19;20103;-73
2023/08/03 00:55:45;;;;;;;9.80;3.05;;;;;;;16.60;100.00;99017.56;6102089;19;20063;-73
2023/08/03 00:57:50;;;;;;;8.32;3.88;;;;;;;16.60;100.00;99019.38;6104858;19;20327;-73
2023/08/03 00:59:55;;;;;;;14.38;4.00;;;;;;;16.58;100.00;99023.97;6100357;19;20014;-73
2023/08/03 01:02:00;;;;;;;8.02;3.67;;;;;;;16.56;100.00;99031.25;6098120;19;20372;-74
2023/08/03 01:04:06;;;;;;;10.32;4.47;;;;;;;16.58;100.00;99022.16;6103322;19;20037;-74
2023/08/03 01:06:11;;;;;;;4.97;3.00;;;;;;;16.63;100.00;99029.69;6101177;19;20013;-73
2023/08/03 01:08:16;;;;;;;9.50;3.05;;;;;;;16.53;100.00;99019.09;6100858;19;20023;-74
2023/08/03 01:10:21;;;;;;;8.35;3.20;;;;;;;16.54;100.00;99028.75;6101618;19;20439;-71
2023/08/03 01:12:30;;;;;;;8.50;3.65;;;;;;;16.48;100.00;99031.97;6098262;19;20650;-72
2023/08/03 01:14:35;;;;;;;6.20;2.90;;;;;;;16.46;100.00;99039.25;6099308;19;20007;-73
2023/08/03 01:16:43;;;;;;;6.70;3.00;;;;;;;16.45;100.00;99034.91;6094900;19;20109;-74
2023/08/03 01:18:48;;;;;;;9.35;3.42;;;;;;;16.45;100.00;99032.25;6097196;19;20026;-73
2023/08/03 01:20:53;;;;;;;7.82;3.03;;;;;;;16.39;100.00;99035.50;6100503;19;20063;-73
2023/08/03 01:23:04;;;;;;;8.77;3.55;;;;;;;16.38;100.00;99039.13;6097481;19;20006;-74
2023/08/03 01:25:10;;;;;;;9.27;3.47;;;;;;;16.45;100.00;99043.69;6095386;19;20006;-72
2023/08/03 01:27:15;;;;;;;6.90;3.22;;;;;;;16.42;100.00;99041.34;6096749;19;20046;-73
2023/08/03 01:29:17;;;;;;;9.43;3.22;;;;;;;16.43;100.00;99042.19;6097668;19;20467;-73
2023/08/03 01:31:22;;;;;;;8.38;3.13;;;;;;;16.44;100.00;99049.16;6092749;19;20802;-74
2023/08/03 01:33:28;;;;;;;7.68;3.58;;;;;;;16.45;100.00;99050.81;6097447;19;20486;-73
2023/08/03 01:35:32;;;;;;;7.80;3.10;;;;;;;16.44;100.00;99051.81;6097511;19;20021;-73
2023/08/03 01:37:38;;;;;;;9.35;3.22;;;;;;;16.42;100.00;99043.97;6093463;19;20006;-73
2023/08/03 01:39:48;;;;;;;9.27;3.53;;;;;;;16.44;100.00;99049.97;6092435;19;20002;-73
2023/08/03 01:41:53;;;;;;;10.27;3.22;;;;;;;16.44;100.00;99046.50;6096139;19;20010;-74
2023/08/03 01:44:23;;;;;;;7.93;3.55;;;;;;;16.40;100.00;99056.56;6095467;19;20757;-72
2023/08/03 01:46:29;;;;;;;7.63;3.15;;;;;;;16.40;100.00;99058.34;6095259;19;20027;-74
2023/08/03 01:48:34;;;;;;;8.15;3.15;;;;;;;16.42;100.00;99059.06;6100584;19;20024;-73
2023/08/03 01:50:39;;;;;;;6.45;2.88;;;;;;;16.43;100.00;99058.09;6097929;19;20098;-73
2023/08/03 01:52:48;;;;;;;6.93;2.97;;;;;;;16.42;100.00;99056.41;6094810;19;20014;-71
2023/08/03 01:54:53;;;;;;;9.23;3.22;;;;;;;16.42;100.00;99073.16;6096682;19;20009;-72
2023/08/03 01:56:57;;;;;;;5.57;2.85;;;;;;;16.39;100.00;99062.84;6097973;19;20692;-72
2023/08/03 01:59:02;;;;;;;8.38;3.38;;;;;;;16.40;100.00;99058.34;6097228;19;20014;-72
2023/08/03 02:01:10;;;;;;;6.82;3.50;;;;;;;16.39;100.00;99062.00;6096073;19;21786;-74
2023/08/03 02:03:15;;;;;;;11.45;3.67;;;;;;;16.29;100.00;99055.88;6090189;19;20496;-74
2023/08/03 02:05:20;;;;;;;8.07;3.58;;;;;;;16.32;100.00;99061.72;6099188;19;20007;-72
2023/08/03 02:07:41;;;;;;;7.43;3.10;;;;;;;16.29;100.00;99064.66;6097555;19;20038;-72
2023/08/03 02:09:46;;;;;;;8.48;3.30;;;;;;;16.28;100.00;99065.66;6097309;19;20078;-72
2023/08/03 02:11:51;;;;;;;11.25;3.70;;;;;;;16.30;100.00;99057.53;6094276;19;20007;-72
2023/08/03 02:13:54;;;;;;;9.13;2.97;;;;;;;16.24;100.00;99058.94;6098574;19;20802;-72
2023/08/03 02:15:59;;;;;;;;;;;;;;;16.24;100.00;99062.47;6100118;19;20604;-72
2023/08/03 02:18:20;;;;;;;7.53;2.75;;;;;;;16.30;100.00;99057.53;6093457;19;19915;-72
2023/08/03 02:20:26;;;;;;;8.45;3.03;;;;;;;16.24;100.00;99064.25;6093412;19;20011;-73
2023/08/03 02:22:32;;;;;;;7.25;2.72;;;;;;;16.24;100.00;99059.81;6097320;19;20070;-73
2023/08/03 02:24:38;;;;;;;7.13;3.05;;;;;;;16.27;100.00;99055.19;6096687;19;20617;-72
2023/08/03 02:26:43;;;;;;;8.52;2.72;;;;;;;16.27;100.00;99058.66;6102058;19;20014;-72
2023/08/03 02:28:48;;;;;;;4.93;2.67;;;;;;;16.26;100.00;99056.16;6102705;19;20007;-72
2023/08/03 02:30:53;;;;;;;7.07;3.03;;;;;;;16.20;100.00;99057.56;6106197;19;20006;-72
2023/08/03 02:32:58;;;;;;;5.55;2.28;;;;;;;16.19;100.00;99059.41;6099875;19;20010;-72
2023/08/03 02:35:06;;;;;;;9.68;2.50;;;;;;;16.21;100.00;99057.41;6102178;19;20023;-72
2023/08/03 02:37:11;;;;;;;6.13;2.53;;;;;;;16.18;100.00;99060.34;6104129;19;20003;-73
2023/08/03 02:39:16;;;;;;;10.07;2.42;;;;;;;16.17;100.00;99077.25;6098942;19;20439;-73
2023/08/03 02:41:20;;;;;;;4.00;1.88;;;;;;;16.16;100.00;99080.03;6100717;19;20030;-72
2023/08/03 02:43:26;;;;;;;4.75;2.10;;;;;;;16.18;100.00;99084.19;6100601;19;20514;-73
2023/08/03 02:45:31;;;;;;;3.58;2.10;;;;;;;16.23;100.00;99081.97;6103140;19;20462;-72
2023/08/03 02:47:36;;;;;;;5.32;2.33;;;;;;;16.19;100.00;99083.25;6104019;19;20018;-72
2023/08/03 02:49:41;;;;;;;5.60;2.33;;;;;;;16.18;100.00;99089.50;6097395;19;20019;-72
2023/08/03 02:51:48;;;;;;;5.35;2.60;;;;;;;16.14;100.00;99090.78;6100321;19;20015;-73
2023/08/03 02:53:56;;;;;;;8.43;2.22;;;;;;;16.13;100.00;99098.84;6101849;19;20017;-72
2023/08/03 02:56:01;;;;;;;5.82;2.38;;;;;;;16.12;100.00;99099.84;6100757;19;20085;-73
2023/08/03 02:58:08;;;;;;;4.10;1.98;;;;;;;16.14;100.00;99097.88;6096344;19;20007;-72
2023/08/03 03:00:11;;;;;;;3.88;2.47;;;;;;;16.15;100.00;99104.88;6102730;19;20470;-72
2023/08/03 03:02:16;;;;;;;6.13;2.65;;;;;;;16.16;100.00;99109.16;6101573;19;20034;-72
2023/08/03 03:04:18;;;;;;;7.38;2.63;;;;;;;16.20;100.00;99110.56;6101907;19;20021;-72
2023/08/03 03:06:23;;;;;;;5.72;2.75;;;;;;;16.22;100.00;99122.72;6099793;19;20002;-73
2023/08/03 03:08:31;;;;;;;8.57;2.50;;;;;;;16.29;100.00;99115.03;6102106;19;20006;-73
2023/08/03 03:10:36;;;;;;;8.85;3.15;;;;;;;16.24;100.00;99128.72;6104203;19;20010;-73
2023/08/03 03:12:41;;;;;;;8.45;2.78;;;;;;;16.26;100.00;99127.72;6098685;19;20013;-73
2023/08/03 03:14:46;;;;;;;12.10;3.60;;;;;;;16.22;100.00;99121.88;6099004;19;20014;-72
2023/08/03 03:16:51;;;;;;;8.88;2.70;;;;;;;16.19;100.00;99138.91;6102940;19;20002;-73
2023/08/03 03:18:56;;;;;;;8.48;2.63;;;;;;;16.19;100.00;99136.25;6091899;19;20010;-73
2023/08/03 03:21:01;;;;;;;6.72;2.35;;;;;;;16.18;100.00;99128.44;6098047;19;20002;-72
2023/08/03 03:23:08;;;;;;;8.02;2.75;;;;;;;16.17;100.00;99140.84;6098927;19;20010;-73
2023/08/03 03:25:14;;;;;;;7.90;3.65;;;;;;;16.12;100.00;99139.59;6100116;19;20018;-73
2023/08/03 03:27:21;;;;;;;9.18;2.28;;;;;;;16.15;100.00;99148.09;6097687;19;20339;-73
2023/08/03 03:29:26;;;;;;;4.05;2.00;;;;;;;16.14;100.00;99141.13;6093932;19;20010;-74
2023/08/03 03:31:33;;;;;;;5.43;2.03;;;;;;;16.11;100.00;99154.63;6092807;19;20019;-72
2023/08/03 03:33:38;;;;;;;6.70;2.60;;;;;;;16.12;100.00;99152.84;6091122;19;20063;-72
2023/08/03 03:35:43;;;;;;;11.60;2.55;;;;;;;16.17;100.00;99158.56;6085761;19;20011;-73
2023/08/03 03:37:48;;;;;;;8.88;2.20;;;;;;;16.10;100.00;99162.75;6089293;19;20021;-73
2023/08/03 03:39:53;;;;;;;5.43;2.10;;;;;;;16.10;100.00;99160.09;6089536;19;20462;-73
2023/08/03 03:41:58;;;;;;;6.35;2.10;;;;;;;16.10;100.00;99163.56;6092626;19;20035;-72
2023/08/03 03:44:03;;;;;;;4.80;2.13;;;;;;;16.06;100.00;99163.97;6088553;19;20451;-72
2023/08/03 03:46:08;;;;;;;6.63;2.25;;;;;;;16.10;100.00;99176.00;6084995;19;20021;-72
2023/08/03 03:48:13;;;;;;;8.52;3.10;;;;;;;16.12;100.00;99166.94;6086999;19;20394;-72
2023/08/03 03:50:18;;;;;;;6.65;2.00;;;;;;;16.07;100.00;99171.81;6089429;19;20030;-73
2023/08/03 03:52:23;;;;;;;5.20;2.15;;;;;;;16.09;100.00;99175.16;6085887;19;20121;-73
2023/08/03 03:54:29;;;;;;;5.75;2.00;;;;;;;16.11;100.00;99180.31;6080626;19;20011;-74
2023/08/03 03:56:34;;;;;;;6.80;2.55;;;;;;;16.16;100.00;99178.91;6089885;19;20006;-72
2023/08/03 03:58:42;;;;;;;9.07;2.08;;;;;;;16.16;100.00;99186.84;6091394;19;20462;-72
2023/08/03 04:00:47;;;;;;;4.07;1.60;;;;;;;16.09;100.00;99185.75;6096113;19;20015;-73
2023/08/03 04:02:52;;;;;;;5.07;1.98;;;;;;;16.11;100.00;99190.91;6097207;19;20479;-75
2023/08/03 04:04:57;;;;;;;6.57;2.28;;;;;;;16.11;100.00;99199.69;6096230;19;20017;-72
2023/08/03 04:07:02;;;;;;;8.88;2.70;;;;;;;16.07;100.00;99206.25;6094351;19;20015;-71
2023/08/03 04:09:07;;;;;;;7.55;2.63;;;;;;;16.05;100.00;99199.41;6098742;19;20228;-71
2023/08/03 04:11:13;;;;;;;11.18;3.25;;;;;;;16.07;100.00;99206.25;6099460;19;20046;-73
2023/08/03 04:13:18;;;;;;;12.35;3.47;;;;;;;16.14;100.00;99215.34;6093281;19;20015;-74
2023/08/03 04:15:28;;;;;;;7.82;3.25;;;;;;;16.11;100.00;99212.94;6093600;19;20050;-73
2023/08/03 04:17:33;;;;;;;14.05;3.58;;;;;;;16.18;100.00;99213.22;6089197;19;20041;-71
2023/08/03 04:19:38;;;;;;;12.50;4.20;;;;;;;16.15;100.00;99229.41;6090295;19;20007;-72
2023/08/03 04:21:43;;;;;;;12.13;3.38;;;;;;;16.14;100.00;99222.41;6091295;19;20007;-72
2023/08/03 04:23:48;;;;;;;13.02;4.20;;;;;;;16.14;100.00;99228.59;6088944;19;20090;-72
2023/08/03 04:25:53;;;;;;;15.27;4.72;;;;;;;16.17;100.00;99230.13;6089813;19;20002;-72
2023/08/03 04:27:58;;;;;;;17.13;4.32;;;;;;;16.07;100.00;99239.88;6089903;19;20552;-72
2023/08/03 04:30:03;;;;;;;13.23;3.65;;;;;;;16.06;100.00;99243.47;6080727;19;20013;-72
2023/08/03 04:32:11;;;;;;;13.80;2.97;;;;;;;16.07;100.00;99237.22;6085855;19;20077;-71
2023/08/03 04:34:14;;;;;;;15.15;3.63;;;;;;;16.07;100.00;99247.81;6082434;19;20006;-72
2023/08/03 04:36:19;;;;;;;12.63;3.67;;;;;;;15.98;100.00;99241.50;6083342;19;20009;-72
2023/08/03 04:38:24;;;;;;;14.25;3.22;;;;;;;16.01;100.00;99246.56;6088393;19;20016;-72
2023/08/03 04:40:32;;;;;;;12.10;3.17;;;;;;;16.03;100.00;99257.81;6089990;19;20509;-72
2023/08/03 04:42:37;;;;;;;8.38;2.75;;;;;;;16.02;100.00;99258.81;6084069;19;20007;-73
2023/08/03 04:44:42;;;;;;;14.98;3.85;;;;;;;15.87;100.00;99260.16;6087000;19;20090;-73
2023/08/03 04:46:47;;;;;;;20.10;3.10;;;;;;;15.83;100.00;99267.53;6085581;19;20490;-73
2023/08/03 04:48:55;;;;;;;18.08;3.10;;;;;;;15.87;100.00;99262.81;6088012;19;20474;-73
2023/08/03 04:50:57;;;;;;;9.38;2.75;;;;;;;15.79;100.00;99268.78;6083322;19;20382;-73
2023/08/03 04:53:05;;;;;;;10.48;2.83;;;;;;;15.76;100.00;99263.75;6090707;19;20034;-72
2023/08/03 04:55:11;;;;;;;9.93;2.75;;;;;;;15.78;100.00;99275.88;6090177;19;20011;-72
2023/08/03 04:57:16;;;;;;;11.77;3.20;;;;;;;15.84;100.00;99269.22;6084029;19;20019;-71
2023/08/03 04:59:21;;;;;;;12.25;3.85;;;;;;;15.88;100.00;99280.41;6088509;19;20066;-71
2023/08/03 05:01:26;;;;;;;9.85;2.80;;;;;;;15.89;100.00;99280.25;6087063;19;20680;-72
2023/08/03 05:03:32;;;;;;;8.30;3.67;;;;;;;15.90;100.00;99283.72;6083302;19;20015;-71
2023/08/03 05:05:39;;;;;;;10.15;2.88;;;;;;;15.91;100.00;99280.94;6088143;19;20038;-71
2023/08/03 05:07:41;;;;;;;11.98;3.17;;;;;;;15.91;100.00;99283.59;6083876;19;20100;-69
2023/08/03 05:09:46;;;;;;;9.05;2.47;;;;;;;15.87;100.00;99284.84;6087108;19;20018;-69
2023/08/03 05:11:51;;;;;;;9.32;2.92;;;;;;;15.91;100.00;99290.72;6087619;19;20062;-70
2023/08/03 05:13:56;;;;;;;11.00;2.67;;;;;;;15.85;100.00;99285.94;6089025;19;20612;-70
2023/08/03 05:16:01;;;;;;;13.88;3.17;;;;;;;15.89;100.00;99285.53;6088672;19;20046;-71
2023/08/03 05:18:06;;;;;;;16.05;3.45;;;;;;;15.88;100.00;99286.53;6090558;19;20031;-69
2023/08/03 05:20:12;;;;;;;10.98;3.33;;;;;;;15.88;100.00;99283.03;6088583;19;20074;-70
2023/08/03 05:22:20;;;;;;;13.95;3.15;;;;;;;15.89;100.00;99290.84;6088428;19;20771;-70
2023/08/03 05:24:25;;;;;;;9.30;2.58;;;;;;;15.90;100.00;99289.03;6082586;19;20006;-70
2023/08/03 05:26:34;;;;;;;10.20;3.15;;;;;;;15.94;100.00;99295.75;6089021;19;20007;-69
2023/08/03 05:28:39;;;;;;;10.52;2.88;;;;;;;15.93;100.00;99299.34;6086774;19;20401;-70
2023/08/03 05:30:46;;;;;;;8.32;2.35;;;;;;;15.90;100.00;99304.91;6085843;19;20586;-69
2023/08/03 05:32:53;;;;;;;6.15;2.63;;;;;;;15.94;100.00;99293.09;6080702;19;20002;-70
2023/08/03 05:35:00;;;;;;;7.28;2.35;;;;;;;15.89;100.00;99300.59;6083257;19;20085;-70
2023/08/03 05:37:07;;;;;;;7.18;2.13;;;;;;;15.90;100.00;99297.81;6081014;19;20701;-71
2023/08/03 05:39:17;;;;;;;9.00;2.67;;;;;;;15.91;100.00;99290.72;6088706;19;20010;-69
2023/08/03 05:41:25;;;;;;;11.35;2.58;;;;;;;15.91;100.00;99296.00;6081816;19;20027;-69
2023/08/03 05:43:30;;;;;;;10.93;2.95;;;;;;;15.93;100.00;99307.28;6089356;19;22265;-69
2023/08/03 05:45:39;;;;;;;12.98;2.90;;;;;;;15.97;100.00;99304.25;6091274;19;20102;-69
2023/08/03 05:47:47;;;;;;;7.03;2.20;;;;;;;16.02;100.00;99310.00;6083900;19;20007;-70
2023/08/03 05:49:52;;;;;;;10.98;2.60;;;;;;;16.06;100.00;99304.41;6096377;19;20077;-70
2023/08/03 05:51:57;;;;;;;7.13;2.60;;;;;;;16.06;100.00;99315.88;6090006;19;20501;-71
2023/08/03 05:54:03;;;;;;;10.88;2.40;;;;;;;16.04;100.00;99320.47;6090910;19;20746;-69
2023/08/03 05:56:13;;;;;;;14.50;3.55;;;;;;;16.11;100.00;99313.63;6092643;19;20030;-69
2023/08/03 05:58:20;;;;;;;12.32;3.70;;;;;;;16.21;100.00;99326.91;6093820;19;20034;-69
2023/08/03 06:00:22;;;;;;;14.07;3.08;;;;;;;16.21;100.00;99321.63;6096931;19;20589;-70
2023/08/03 06:02:35;;;;;;;22.27;4.28;;;;;;;16.28;100.00;99320.13;6091782;19;20335;-70
2023/08/03 06:04:40;;;;;;;18.90;4.30;;;;;;;16.35;100.00;99321.25;6093012;19;20117;-70
2023/08/03 06:06:46;;;;;;;11.15;3.25;;;;;;;16.34;100.00;99326.69;6094763;19;20027;-71
2023/08/03 06:08:54;;;;;;;18.42;3.08;;;;;;;16.37;100.00;99331.69;6101986;19;20027;-70
2023/08/03 06:11:03;;;;;;;17.23;3.38;;;;;;;16.38;100.00;99341.34;6107674;19;20460;-70
2023/08/03 06:13:12;;;;;;;7.85;2.72;;;;;;;16.37;100.00;99339.66;6098671;19;20013;-71
2023/08/03 06:15:19;;;;;;;11.63;3.15;;;;;;;16.39;100.00;99338.56;6098374;19;20613;-74
2023/08/03 06:17:24;;;;;;;20.27;3.92;;;;;;;16.41;100.00;99349.88;6098438;19;20034;-73
2023/08/03 06:19:35;;;;;;;11.75;3.40;;;;;;;16.47;100.00;99351.13;6097920;19;20011;-72
2023/08/03 06:21:40;;;;;;;13.75;3.22;;;;;;;16.48;100.00;99342.19;6062599;19;20010;-74
2023/08/03 06:23:47;;;;;;;14.70;3.55;;;;;;;16.50;100.00;99350.84;6088279;19;20015;-74
2023/08/03 06:25:54;;;;;;;18.25;4.30;;;;;;;16.60;100.00;99353.53;6098432;19;20010;-74
2023/08/03 06:28:05;;;;;;;16.35;3.60;;;;;;;16.55;100.00;99364.53;6097172;19;20530;-75
2023/08/03 06:30:22;;;;;;;11.30;4.28;;;;;;;16.60;100.00;99369.44;6101154;19;20120;-73
2023/08/03 06:32:31;;;;;;;13.55;4.47;;;;;;;16.68;100.00;99378.38;6079522;19;20379;-74
2023/08/03 06:34:36;;;;;;;18.98;4.72;;;;;;;16.70;100.00;99388.88;6090854;19;19998;-73
2023/08/03 06:36:44;;;;;;;12.43;4.25;;;;;;;16.78;100.00;99390.88;6101746;19;20129;-75
2023/08/03 06:38:46;;;;;;;10.55;3.95;;;;;;;16.75;100.00;99393.78;6097644;19;20011;-73
2023/08/03 06:40:52;;;;;;;14.32;3.92;;;;;;;16.77;100.00;99405.06;6107439;19;20017;-74
2023/08/03 06:42:58;;;;;;;13.98;3.85;;;;;;;16.78;100.00;99414.75;6103322;19;20006;-73
2023/08/03 06:45:05;;;;;;;8.00;3.42;;;;;;;16.79;100.00;99425.19;6101544;19;20118;-74
2023/08/03 06:47:13;;;;;;;9.43;3.83;;;;;;;16.82;100.00;99426.75;6102297;19;20415;-74
2023/08/03 06:49:18;;;;;;;9.85;3.80;;;;;;;16.83;100.00;99436.41;6104985;19;20038;-73
2023/08/03 06:51:23;;;;;;;11.63;3.55;;;;;;;16.85;100.00;99445.91;6098711;19;20025;-72
2023/08/03 06:53:28;;;;;;;13.90;4.07;;;;;;;16.88;100.00;99447.44;6103528;19;20015;-73
2023/08/03 06:55:33;;;;;;;11.98;3.22;;;;;;;16.88;100.00;99455.41;6096351;19;20008;-72
2023/08/03 06:57:38;;;;;;;7.45;3.15;;;;;;;16.92;100.00;99462.09;6088088;19;20446;-72
2023/08/03 06:59:43;;;;;;;10.32;3.13;;;;;;;16.95;100.00;99475.09;6100733;19;20026;-74
2023/08/03 07:01:48;;;;;;;10.52;3.10;;;;;;;16.96;100.00;99465.34;6102187;19;20017;-74
2023/08/03 07:03:56;;;;;;;10.10;3.05;;;;;;;16.98;100.00;99482.81;6099343;19;20363;-74
2023/08/03 07:06:03;;;;;;;10.18;3.10;;;;;;;16.97;100.00;99481.09;6101216;19;20011;-74
2023/08/03 07:08:08;;;;;;;9.15;3.10;;;;;;;16.99;100.00;99500.38;6103817;19;20021;-74
2023/08/03 07:10:13;;;;;;;7.45;3.53;;;;;;;17.04;100.00;99500.81;6107285;19;20007;-70
2023/08/03 07:12:18;;;;;;;11.52;3.08;;;;;;;17.13;100.00;99503.63;6102958;19;20510;-71
2023/08/03 07:14:23;;;;;;;11.85;3.45;;;;;;;17.14;100.00;99518.56;6100891;19;20002;-68
2023/08/03 07:16:27;;;;;;;12.95;3.50;;;;;;;17.23;100.00;99521.25;6100407;19;20461;-71
2023/08/03 07:18:32;;;;;;;10.10;3.15;;;;;;;17.36;100.00;99534.28;6104884;19;20018;-69
2023/08/03 07:20:40;;;;;;;7.20;2.90;;;;;;;17.40;100.00;99530.34;6100957;19;20007;-68
2023/08/03 07:22:45;;;;;;;8.70;2.90;;;;;;;17.39;100.00;99543.78;6099785;19;20423;-69
2023/08/03 07:24:50;;;;;;;6.57;2.30;;;;;;;17.36;100.00;99544.06;6097543;19;20003;-69
2023/08/03 07:26:53;;;;;;;6.82;2.85;;;;;;;17.37;100.00;99554.53;6097662;19;20038;-69
2023/08/03 07:28:58;;;;;;;10.15;2.72;;;;;;;17.38;100.00;99558.88;6101008;19;20050;-68
2023/08/03 07:31:02;;;;;;;7.18;2.70;;;;;;;17.42;100.00;99572.72;6098562;19;20035;-69
2023/08/03 07:33:09;;;;;;;9.35;2.50;;;;;;;17.36;100.00;99574.09;6104513;19;20609;-69
2023/08/03 07:35:14;;;;;;;8.80;2.67;;;;;;;17.34;100.00;99576.06;6109451;19;20011;-69
2023/08/03 07:37:21;;;;;;;5.15;2.90;;;;;;;17.38;100.00;99582.78;6108159;19;20641;-69
2023/08/03 07:39:26;;;;;;;5.25;2.10;;;;;;;17.44;100.00;99586.72;6106200;19;20105;-68
2023/08/03 07:41:31;;;;;;;7.47;2.30;;;;;;;17.57;100.00;99589.09;6105207;19;20021;-70
2023/08/03 07:43:36;;;;;;;5.65;2.50;;;;;;;17.59;100.00;99597.75;6104975;19;20007;-71
2023/08/03 07:45:41;;;;;;;10.25;2.92;;;;;;;17.53;100.00;99605.28;6103932;19;20007;-70
2023/08/03 07:47:49;;;;;;;6.60;2.60;;;;;;;17.57;100.00;99602.38;6099171;19;20050;-69
2023/08/03 07:49:56;;;;;;;4.78;2.72;;;;;;;17.49;100.00;99619.84;6100065;19;20038;-69
2023/08/03 07:52:01;;;;;;;7.63;3.10;;;;;;;17.55;100.00;99619.28;6098621;19;20516;-69
2023/08/03 07:54:09;;;;;;;8.60;3.50;;;;;;;17.63;99.45;99636.38;6098341;19;20003;-70
2023/08/03 07:56:14;;;;;;;6.97;2.75;;;;;;;17.70;99.69;99641.00;6100970;19;20744;-69
2023/08/03 07:58:19;;;;;;;9.35;3.00;;;;;;;17.71;98.93;99641.84;6099358;19;20002;-69
2023/08/03 08:00:25;;;;;;;6.78;3.15;;;;;;;17.81;97.87;99645.38;6092691;19;20002;-69
2023/08/03 08:02:30;;;;;;;9.00;3.15;;;;;;;17.96;98.50;99657.28;6100755;19;20010;-69
2023/08/03 08:04:35;;;;;;;7.53;3.25;;;;;;;18.13;95.77;99654.91;6102580;19;20022;-71
2023/08/03 08:06:40;;;;;;;5.88;3.22;;;;;;;18.10;95.90;99658.69;6099854;19;20724;-70
2023/08/03 08:08:45;;;;;;;6.45;3.28;;;;;;;18.25;97.90;99664.44;6101269;19;20002;-71
2023/08/03 08:10:58;;;;;;;5.97;3.70;;;;;;;18.35;97.93;99672.41;6101188;19;20018;-71
2023/08/03 08:13:16;;;;;;;12.40;3.75;;;;;;;18.10;95.92;99679.97;6097265;19;20425;-70
2023/08/03 08:15:21;;;;;;;5.78;3.08;;;;;;;18.15;95.76;99685.72;6103101;19;20034;-71
2023/08/03 08:17:26;;;;;;;8.90;2.97;;;;;;;18.26;95.56;99686.56;6102205;19;20103;-69
2023/08/03 08:19:32;;;;;;;8.25;3.35;;;;;;;18.18;95.12;99689.91;6100631;19;20038;-71
2023/08/03 08:21:37;;;;;;;14.18;4.45;;;;;;;18.21;95.62;99694.94;6103611;19;20345;-69
2023/08/03 08:23:43;;;;;;;7.28;2.80;;;;;;;18.14;96.59;99701.78;6102792;19;20006;-71
2023/08/03 08:25:48;;;;;;;7.85;3.40;;;;;;;18.15;96.43;99699.00;6104009;19;20006;-70
2023/08/03 08:27:59;;;;;;;9.05;4.63;;;;;;;18.43;95.91;99704.44;6100723;19;20030;-70
2023/08/03 08:30:05;;;;;;;9.15;3.28;;;;;;;18.75;94.35;99719.34;6103746;19;20006;-70
2023/08/03 08:32:10;;;;;;;6.38;3.47;;;;;;;19.24;93.39;99710.22;6104137;19;20018;-70
2023/08/03 08:34:12;;;;;;;9.20;3.53;;;;;;;19.19;92.91;99722.31;6105294;19;20643;-70
2023/08/03 08:36:17;;;;;;;8.80;3.28;;;;;;;19.40;92.05;99716.75;6105498;19;20095;-70
2023/08/03 08:38:22;;;;;;;8.65;3.35;;;;;;;19.27;92.03;99720.63;6102487;19;20017;-69
2023/08/03 08:40:29;;;;;;;6.78;2.75;;;;;;;19.08;93.72;99744.63;6097170;19;20015;-69
2023/08/03 08:42:34;;;;;;;10.75;3.30;;;;;;;18.45;99.18;99754.88;6100167;19;20011;-72
2023/08/03 08:44:42;;;;;;;8.77;3.40;;;;;;;18.10;100.00;99758.88;6098831;19;20006;-71
2023/08/03 08:46:48;;;;;;;7.15;2.90;;;;;;;17.88;100.00;99760.81;6101404;19;20363;-71
2023/08/03 08:48:53;;;;;;;6.40;3.20;;;;;;;17.75;100.00;99758.34;6102895;19;20035;-71
2023/08/03 08:51:02;;;;;;;8.10;3.10;;;;;;;17.65;100.00;99761.94;6096585;19;20014;-72
2023/08/03 08:53:10;;;;;;;10.77;3.55;;;;;;;17.45;100.00;99772.47;6094651;19;20109;-71
2023/08/03 08:55:23;;;;;;;9.18;3.63;;;;;;;17.54;100.00;99776.16;6102442;19;20018;-73
2023/08/03 08:57:33;;;;;;;10.20;3.53;;;;;;;17.50;100.00;99785.34;6098896;19;20006;-72
2023/08/03 09:00:01;;;;;;;10.82;3.47;;;;;;;17.43;100.00;99778.88;6099369;19;20097;-72
2023/08/03 09:02:08;;;;;;;12.50;3.60;;;;;;;17.48;100.00;99789.94;6102751;19;20007;-73
2023/08/03 09:04:13;;;;;;;14.25;3.78;;;;;;;17.63;100.00;99793.09;6100627;19;20431;-72
2023/08/03 09:06:21;;;;;;;11.13;3.83;;;;;;;17.87;100.00;99798.97;6097577;19;20074;-73
2023/08/03 09:08:32;;;;;;;11.23;3.88;;;;;;;18.61;100.00;99797.72;6099069;19;20006;-73
2023/08/03 09:10:50;;;;;;;14.48;4.15;;;;;;;18.70;100.00;99798.72;6103289;19;20015;-73
2023/08/03 09:12:56;;;;;;;12.88;4.20;;;;;;;18.68;100.00;99806.00;6098226;19;20352;-73
2023/08/03 09:15:03;;;;;;;15.18;3.60;;;;;;;18.83;100.00;99810.78;6094499;19;20022;-72
2023/08/03 09:17:18;;;;;;;8.48;3.75;;;;;;;19.07;100.00;99814.84;6098968;19;20019;-73
2023/08/03 09:19:39;;;;;;;12.18;4.03;;;;;;;19.61;100.00;99810.63;6100768;19;20023;-72
2023/08/03 09:22:04;;;;;;;13.05;3.85;;;;;;;19.36;97.49;99808.63;6100913;19;20018;-72
2023/08/03 09:24:19;;;;;;;10.77;3.33;;;;;;;19.35;100.00;99817.59;6099822;19;20007;-71
2023/08/03 09:26:30;;;;;;;9.73;3.38;;;;;;;19.43;99.56;99820.38;6099199;19;20570;-73
2023/08/03 09:28:36;;;;;;;7.55;3.10;;;;;;;19.42;96.23;99826.69;6098657;19;20027;-72
2023/08/03 09:30:54;;;;;;;9.65;3.55;;;;;;;18.96;99.44;99833.63;6100859;19;20002;-72
2023/08/03 09:33:02;;;;;;;9.27;3.15;;;;;;;18.69;100.00;99843.09;6092305;19;20010;-71
2023/08/03 09:35:21;;;;;;;9.05;2.58;;;;;;;18.42;100.00;99851.75;6098676;19;20002;-70
2023/08/03 09:37:35;;;;;;;14.38;3.70;;;;;;;18.34;100.00;99863.06;6098074;19;20162;-72
2023/08/03 09:39:56;;;;;;;9.82;2.90;;;;;;;18.14;100.00;99866.63;6095168;19;20011;-70
2023/08/03 09:42:02;;;;;;;12.73;3.17;;;;;;;18.18;100.00;99881.34;6101611;19;20031;-71
2023/08/03 09:44:09;;;;;;;6.93;2.20;;;;;;;18.31;99.35;99887.28;6100641;19;20014;-71
2023/08/03 09:46:17;;;;;;;6.13;1.80;;;;;;;18.37;98.47;99889.38;6100024;19;20078;-73
2023/08/03 09:48:23;;;;;;;6.65;1.90;;;;;;;18.14;98.22;99882.59;6098946;19;20021;-72